Time;durP1;ratioP1;P1;durP2;ratioP2;P2;SDS_P1;SDS_P2;PMS_P1;PMS_P2;Temp;Humidity;BMP_temperature;BMP_pressure;BME280_temperature;BME280_humidity;BME280_pressure;Samples;Min_cycle;Max_cycle;Signal;HPM_P1;HPM_P2
2021/07/14 00:00:16;;;;;;;7.10;2.00;;;;;;;;;;4955194;28;20190;-84
2021/07/14 00:03:21;;;;;;;4.90;1.70;;;;;;;;;;4975718;28;20182;-83
2021/07/14 00:06:25;;;;;;;3.23;2.00;;;;;;;;;;4985988;28;20232;-84
2021/07/14 00:09:29;;;;;;;2.90;1.70;;;;;;;;;;4976681;28;20181;-83
2021/07/14 00:12:42;;;;;;;6.37;1.57;;;;;;;;;;4989728;28;20189;-84
2021/07/14 00:22:25;;;;;;;2.93;1.40;;;;;;;;;;4973364;28;20187;-84
2021/07/14 00:25:29;;;;;;;3.20;1.63;;;;;;;;;;4996693;28;20209;-83
2021/07/14 00:28:36;;;;;;;2.43;1.80;;;;;;;;;;5013689;28;20186;-83
2021/07/14 00:31:43;;;;;;;5.23;1.60;;;;;;;;;;4978602;28;20185;-84
2021/07/14 00:34:47;;;;;;;4.97;2.00;;;;;;;;;;4990220;28;20679;-84
2021/07/14 00:37:51;;;;;;;2.67;1.90;;;;;;;;;;4981182;28;20177;-83
2021/07/14 00:40:56;;;;;;;4.50;1.80;;;;;;;;;;4982017;28;20522;-83
2021/07/14 00:44:00;;;;;;;5.17;1.70;;;;;;;;;;4972644;28;20510;-84
2021/07/14 00:47:07;;;;;;;6.23;1.60;;;;;;;;;;4971086;28;20229;-84
2021/07/14 00:50:12;;;;;;;4.80;1.60;;;;;;;;;;4958555;28;20554;-84
2021/07/14 00:53:16;;;;;;;7.43;1.73;;;;;;;;;;4977788;28;20197;-84
2021/07/14 00:56:20;;;;;;;5.53;1.70;;;;;;;;;;4964025;28;20210;-83
2021/07/14 00:59:24;;;;;;;7.00;1.90;;;;;;;;;;4970046;28;20198;-84
2021/07/14 01:02:28;;;;;;;3.83;1.70;;;;;;;;;;5001838;28;20186;-83
2021/07/14 01:05:37;;;;;;;5.40;2.10;;;;;;;;;;4951924;28;20210;-83
2021/07/14 01:08:57;;;;;;;7.10;2.00;;;;;;;;;;4964423;28;20519;-84
2021/07/14 01:12:09;;;;;;;3.93;2.53;;;;;;;;;;4993987;28;20197;-83
2021/07/14 01:15:16;;;;;;;6.70;1.97;;;;;;;;;;5002346;28;20213;-83
2021/07/14 01:18:37;;;;;;;3.60;2.07;;;;;;;;;;4991690;28;20534;-83
2021/07/14 01:21:44;;;;;;;7.53;2.40;;;;;;;;;;4991200;28;20181;-84
2021/07/14 01:25:07;;;;;;;8.37;2.47;;;;;;;;;;5002440;28;20182;-83
2021/07/14 01:28:13;;;;;;;3.60;2.70;;;;;;;;;;4991717;28;20186;-83
2021/07/14 01:31:20;;;;;;;3.20;2.70;;;;;;;;;;4985065;28;20197;-83
2021/07/14 01:34:26;;;;;;;7.57;2.63;;;;;;;;;;4984580;28;20213;-83
2021/07/14 01:37:31;;;;;;;6.33;2.70;;;;;;;;;;4991530;28;20181;-83
2021/07/14 01:40:36;;;;;;;6.73;2.80;;;;;;;;;;4974867;28;20186;-83
2021/07/14 01:43:47;;;;;;;6.33;2.50;;;;;;;;;;4982960;28;20178;-83
2021/07/14 01:46:57;;;;;;;6.73;2.87;;;;;;;;;;4976127;28;20696;-83
2021/07/14 01:50:04;;;;;;;5.37;2.13;;;;;;;;;;4952618;28;20182;-83
2021/07/14 01:53:10;;;;;;;6.57;2.03;;;;;;;;;;4941923;28;20183;-83
2021/07/14 01:56:14;;;;;;;5.50;2.20;;;;;;;;;;4952389;28;20697;-83
2021/07/14 01:59:21;;;;;;;3.30;2.33;;;;;;;;;;4963491;28;20186;-83
2021/07/14 02:02:28;;;;;;;5.13;2.23;;;;;;;;;;4974285;28;20186;-83
2021/07/14 02:05:36;;;;;;;9.00;1.77;;;;;;;;;;4963296;28;20214;-83
2021/07/14 02:08:40;;;;;;;7.77;2.53;;;;;;;;;;4957740;28;20198;-83
2021/07/14 02:11:49;;;;;;;13.10;2.30;;;;;;;;;;4952653;28;20191;-83
2021/07/14 02:15:20;;;;;;;5.47;2.27;;;;;;;;;;4951889;28;20565;-83
2021/07/14 02:18:32;;;;;;;9.17;2.80;;;;;;;;;;4963920;28;20198;-84
2021/07/14 02:21:36;;;;;;;8.43;2.43;;;;;;;;;;4975664;28;20191;-83
2021/07/14 02:24:41;;;;;;;9.20;2.60;;;;;;;;;;4975359;28;20518;-84
2021/07/14 02:27:46;;;;;;;6.40;2.30;;;;;;;;;;4975182;28;20175;-83
2021/07/14 02:30:50;;;;;;;3.13;2.10;;;;;;;;;;4989642;28;20201;-83
2021/07/14 02:33:54;;;;;;;6.67;2.47;;;;;;;;;;4989522;28;20668;-83
2021/07/14 02:37:02;;;;;;;9.50;2.27;;;;;;;;;;4974647;28;20704;-83
2021/07/14 02:40:07;;;;;;;3.97;2.20;;;;;;;;;;4975512;28;20178;-83
2021/07/14 02:43:13;;;;;;;6.93;2.30;;;;;;;;;;4989501;28;20193;-83
2021/07/14 02:46:23;;;;;;;5.73;2.00;;;;;;;;;;4997741;23;20213;-85
2021/07/14 02:49:28;;;;;;;7.43;2.43;;;;;;;;;;4994396;28;20690;-86
2021/07/14 02:52:35;;;;;;;10.50;2.40;;;;;;;;;;4975406;28;20183;-85
2021/07/14 02:55:41;;;;;;;3.63;2.07;;;;;;;;;;4972681;28;20228;-85
2021/07/14 02:58:49;;;;;;;6.47;2.37;;;;;;;;;;4981262;28;20209;-85
2021/07/14 03:01:55;;;;;;;4.10;2.27;;;;;;;;;;4991636;28;20186;-86
2021/07/14 03:05:00;;;;;;;2.90;2.30;;;;;;;;;;4986079;28;20178;-85
2021/07/14 03:08:09;;;;;;;3.17;2.30;;;;;;;;;;4985888;28;20230;-85
2021/07/14 03:11:15;;;;;;;7.93;2.40;;;;;;;;;;4998057;28;20190;-85
2021/07/14 03:14:19;;;;;;;4.67;2.43;;;;;;;;;;4997009;28;20201;-85
2021/07/14 03:17:27;;;;;;;5.17;2.20;;;;;;;;;;4992506;28;20217;-85
2021/07/14 03:20:31;;;;;;;3.30;2.57;;;;;;;;;;5003991;28;20182;-85
2021/07/14 03:23:38;;;;;;;5.33;2.40;;;;;;;;;;4990115;28;20194;-86
2021/07/14 03:26:42;;;;;;;5.27;2.37;;;;;;;;;;5008582;28;20221;-85
2021/07/14 03:29:50;;;;;;;4.00;2.60;;;;;;;;;;4990786;28;20201;-86
2021/07/14 03:32:54;;;;;;;7.43;2.53;;;;;;;;;;5004474;28;20529;-86
2021/07/14 03:36:01;;;;;;;4.03;2.30;;;;;;;;;;4996094;28;20217;-85
2021/07/14 03:39:06;;;;;;;5.60;2.50;;;;;;;;;;4980511;28;20190;-86
2021/07/14 03:42:14;;;;;;;5.93;2.57;;;;;;;;;;5002505;28;20185;-86
2021/07/14 03:45:19;;;;;;;3.77;2.50;;;;;;;;;;4994561;28;20517;-86
2021/07/14 03:48:23;;;;;;;5.87;2.43;;;;;;;;;;4983680;28;20209;-85
2021/07/14 03:51:29;;;;;;;4.47;2.50;;;;;;;;;;5015700;28;20189;-85
2021/07/14 03:54:34;;;;;;;4.93;2.60;;;;;;;;;;4999782;28;20190;-85
2021/07/14 03:57:39;;;;;;;4.43;2.17;;;;;;;;;;4977933;28;20699;-85
2021/07/14 04:00:44;;;;;;;3.20;2.30;;;;;;;;;;4992559;28;20201;-86
2021/07/14 04:03:51;;;;;;;5.43;2.27;;;;;;;;;;4970536;28;20198;-85
2021/07/14 04:07:00;;;;;;;12.10;2.73;;;;;;;;;;4985106;28;20218;-85
2021/07/14 04:10:05;;;;;;;6.67;2.60;;;;;;;;;;4983882;28;20653;-85
2021/07/14 04:13:09;;;;;;;4.63;2.47;;;;;;;;;;4973695;28;20182;-85
2021/07/14 04:16:13;;;;;;;4.63;2.40;;;;;;;;;;4992693;28;20565;-84
2021/07/14 04:19:17;;;;;;;10.83;2.53;;;;;;;;;;4995676;28;20661;-85
2021/07/14 04:22:21;;;;;;;4.97;2.93;;;;;;;;;;4974141;28;20182;-86
2021/07/14 04:25:25;;;;;;;5.20;2.50;;;;;;;;;;5000419;28;20186;-86
2021/07/14 04:28:32;;;;;;;3.97;2.07;;;;;;;;;;4995645;28;20186;-85
2021/07/14 04:31:37;;;;;;;4.67;2.47;;;;;;;;;;4997107;28;20194;-85
2021/07/14 04:34:41;;;;;;;3.63;2.27;;;;;;;;;;4984341;28;20202;-85
2021/07/14 04:37:49;;;;;;;7.23;2.60;;;;;;;;;;4993278;28;20217;-85
2021/07/14 04:40:53;;;;;;;5.20;2.50;;;;;;;;;;4979960;28;20194;-85
2021/07/14 04:44:05;;;;;;;7.10;2.63;;;;;;;;;;5004425;28;20197;-85
2021/07/14 04:47:12;;;;;;;5.63;2.50;;;;;;;;;;5018497;28;20225;-85
2021/07/14 04:50:25;;;;;;;4.27;2.30;;;;;;;;;;4996786;28;20197;-85
2021/07/14 04:53:29;;;;;;;3.97;2.07;;;;;;;;;;4997775;28;20202;-85
2021/07/14 04:56:34;;;;;;;3.57;2.13;;;;;;;;;;4989183;28;20233;-86
2021/07/14 04:59:38;;;;;;;7.13;2.60;;;;;;;;;;4996335;28;20197;-85
2021/07/14 05:02:44;;;;;;;3.77;2.57;;;;;;;;;;4994581;28;20193;-85
2021/07/14 05:05:49;;;;;;;3.37;2.97;;;;;;;;;;4995526;28;20182;-85
2021/07/14 05:08:53;;;;;;;5.70;2.40;;;;;;;;;;4984811;28;20541;-85
2021/07/14 05:11:56;;;;;;;7.33;2.53;;;;;;;;;;4975502;28;20182;-85
2021/07/14 05:15:00;;;;;;;5.83;2.53;;;;;;;;;;4980701;28;20197;-85
2021/07/14 05:18:05;;;;;;;4.93;2.47;;;;;;;;;;4978444;28;20225;-85
2021/07/14 05:21:09;;;;;;;3.33;2.00;;;;;;;;;;4995777;28;20205;-86
2021/07/14 05:24:13;;;;;;;7.80;2.50;;;;;;;;;;4988741;28;20209;-85
2021/07/14 05:27:17;;;;;;;5.10;2.53;;;;;;;;;;4982474;28;20553;-85
2021/07/14 05:30:22;;;;;;;4.33;2.43;;;;;;;;;;5005777;28;20659;-86
2021/07/14 05:33:26;;;;;;;7.97;2.47;;;;;;;;;;4987277;28;20190;-86
2021/07/14 05:36:30;;;;;;;7.07;2.27;;;;;;;;;;5000354;28;20604;-85
2021/07/14 05:39:35;;;;;;;4.10;2.30;;;;;;;;;;4985414;28;20190;-85
2021/07/14 05:42:39;;;;;;;5.57;2.30;;;;;;;;;;4979682;28;20531;-85
2021/07/14 05:45:44;;;;;;;8.20;2.60;;;;;;;;;;5005180;28;20196;-86
2021/07/14 05:48:49;;;;;;;3.83;2.30;;;;;;;;;;4996258;28;20202;-85
2021/07/14 05:51:53;;;;;;;2.37;2.07;;;;;;;;;;4992029;28;20562;-86
2021/07/14 05:54:57;;;;;;;4.90;2.40;;;;;;;;;;4987663;28;20194;-85
2021/07/14 05:58:02;;;;;;;5.23;2.73;;;;;;;;;;4991162;28;20225;-85
2021/07/14 06:01:06;;;;;;;7.80;2.87;;;;;;;;;;4985013;28;20648;-85
2021/07/14 06:04:10;;;;;;;3.93;2.60;;;;;;;;;;5019642;28;20181;-85
2021/07/14 06:07:14;;;;;;;5.13;3.27;;;;;;;;;;5018609;28;20209;-85
2021/07/14 06:10:19;;;;;;;3.77;2.90;;;;;;;;;;5010522;28;20186;-85
2021/07/14 06:13:23;;;;;;;9.13;3.63;;;;;;;;;;4999977;28;20182;-85
2021/07/14 06:16:27;;;;;;;3.60;2.73;;;;;;;;;;4997883;28;20234;-85
2021/07/14 06:19:32;;;;;;;4.03;2.90;;;;;;;;;;5015321;28;20213;-85
2021/07/14 06:22:37;;;;;;;5.40;2.87;;;;;;;;;;4998941;28;20182;-85
2021/07/14 06:25:40;;;;;;;3.77;2.83;;;;;;;;;;4987349;28;20530;-85
2021/07/14 06:28:45;;;;;;;3.90;3.30;;;;;;;;;;5020539;28;20189;-85
2021/07/14 06:31:49;;;;;;;4.03;3.10;;;;;;;;;;5017511;28;20193;-85
2021/07/14 06:34:54;;;;;;;5.63;3.60;;;;;;;;;;4986892;28;20194;-85
2021/07/14 06:37:59;;;;;;;6.13;3.30;;;;;;;;;;4975915;28;20558;-85
2021/07/14 06:41:03;;;;;;;3.77;2.80;;;;;;;;;;4981525;28;20205;-85
2021/07/14 06:44:07;;;;;;;4.03;2.87;;;;;;;;;;4994536;28;20190;-85
2021/07/14 06:47:13;;;;;;;4.17;2.90;;;;;;;;;;5003736;28;20212;-85
2021/07/14 06:50:17;;;;;;;9.40;3.13;;;;;;;;;;4996701;28;20193;-85
2021/07/14 06:53:21;;;;;;;5.43;3.10;;;;;;;;;;4995223;28;20197;-85
2021/07/14 06:56:25;;;;;;;3.67;2.90;;;;;;;;;;4992579;28;20699;-85
2021/07/14 06:59:29;;;;;;;8.30;3.40;;;;;;;;;;4987831;28;20194;-86
2021/07/14 07:02:34;;;;;;;5.30;3.10;;;;;;;;;;4975279;28;20194;-85
2021/07/14 07:05:38;;;;;;;5.40;3.13;;;;;;;;;;5024085;28;20185;-85
2021/07/14 07:08:43;;;;;;;5.30;3.30;;;;;;;;;;5002269;28;20193;-85
2021/07/14 07:11:48;;;;;;;3.77;2.90;;;;;;;;;;4994513;28;20185;-86
2021/07/14 07:14:52;;;;;;;6.50;3.50;;;;;;;;;;4994564;28;20185;-85
2021/07/14 07:17:56;;;;;;;4.70;3.40;;;;;;;;;;4996319;28;20213;-85
2021/07/14 07:21:01;;;;;;;3.33;2.77;;;;;;;;;;5017457;28;20185;-86
2021/07/14 07:24:05;;;;;;;4.93;3.13;;;;;;;;;;5027923;28;20205;-86
2021/07/14 07:27:09;;;;;;;5.63;3.10;;;;;;;;;;4994638;28;20217;-86
2021/07/14 07:30:14;;;;;;;7.63;3.23;;;;;;;;;;4982534;28;20198;-85
2021/07/14 07:33:18;;;;;;;4.07;3.67;;;;;;;;;;4984615;28;20209;-86
2021/07/14 07:36:35;;;;;;;10.27;7.77;;;;;;;;;;4991508;28;20228;-86
2021/07/14 07:39:41;;;;;;;7.43;6.70;;;;;;;;;;4987631;28;20234;-87
2021/07/14 07:42:45;;;;;;;8.47;5.30;;;;;;;;;;4983779;28;20209;-87
2021/07/14 07:45:49;;;;;;;5.10;3.87;;;;;;;;;;4984171;28;20213;-86
2021/07/14 07:48:53;;;;;;;9.07;3.90;;;;;;;;;;4973630;28;20653;-87
2021/07/14 07:51:57;;;;;;;10.97;4.20;;;;;;;;;;5007146;28;20182;-87
2021/07/14 07:55:05;;;;;;;5.97;4.23;;;;;;;;;;4994766;28;20209;-87
2021/07/14 07:58:09;;;;;;;7.57;4.37;;;;;;;;;;5010029;28;20218;-87
2021/07/14 08:01:13;;;;;;;5.30;3.83;;;;;;;;;;4995596;28;20648;-86
2021/07/14 08:04:17;;;;;;;6.10;4.67;;;;;;;;;;4996359;28;20190;-86
2021/07/14 08:07:21;;;;;;;7.37;4.40;;;;;;;;;;5006831;28;20217;-87
2021/07/14 08:10:25;;;;;;;10.23;5.67;;;;;;;;;;4975697;28;20201;-86
2021/07/14 08:13:29;;;;;;;8.23;6.27;;;;;;;;;;4974804;28;20206;-87
2021/07/14 08:16:33;;;;;;;9.70;6.77;;;;;;;;;;4980299;28;20221;-87
2021/07/14 08:19:38;;;;;;;8.40;7.20;;;;;;;;;;4992458;28;20209;-87
2021/07/14 08:22:43;;;;;;;6.97;5.80;;;;;;;;;;4981776;28;20185;-86
2021/07/14 08:25:51;;;;;;;8.60;6.60;;;;;;;;;;4962576;28;20186;-86
2021/07/14 08:28:56;;;;;;;7.73;6.57;;;;;;;;;;4984059;28;20187;-87
2021/07/14 08:32:00;;;;;;;7.93;5.60;;;;;;;;;;4984480;28;20210;-87
2021/07/14 08:35:06;;;;;;;5.97;5.43;;;;;;;;;;4981502;28;20209;-87
2021/07/14 08:38:10;;;;;;;8.37;6.33;;;;;;;;;;4989244;28;20229;-87
2021/07/14 08:41:18;;;;;;;9.57;6.57;;;;;;;;;;5008180;28;20194;-86
2021/07/14 08:44:24;;;;;;;8.50;6.23;;;;;;;;;;4985022;28;20195;-87
2021/07/14 08:47:29;;;;;;;7.43;5.03;;;;;;;;;;4983431;28;20230;-86
2021/07/14 08:50:41;;;;;;;5.87;5.27;;;;;;;;;;4989636;28;20209;-86
2021/07/14 08:53:48;;;;;;;5.40;4.90;;;;;;;;;;4995485;28;20190;-85
2021/07/14 08:56:53;;;;;;;6.00;5.40;;;;;;;;;;5000137;28;20325;-87
2021/07/14 08:59:57;;;;;;;6.27;5.07;;;;;;;;;;4980536;28;20526;-87
2021/07/14 09:03:03;;;;;;;5.50;4.00;;;;;;;;;;4983764;28;20202;-86
2021/07/14 09:06:08;;;;;;;6.60;5.13;;;;;;;;;;4992964;28;20558;-86
2021/07/14 09:09:12;;;;;;;5.83;4.93;;;;;;;;;;4979456;28;20213;-86
2021/07/14 09:12:16;;;;;;;6.17;5.47;;;;;;;;;;4981410;28;20178;-86
2021/07/14 09:15:21;;;;;;;6.63;5.43;;;;;;;;;;4992892;28;20186;-87
2021/07/14 09:18:28;;;;;;;5.40;4.90;;;;;;;;;;4988310;28;20193;-85
2021/07/14 09:21:39;;;;;;;5.63;5.03;;;;;;;;;;4992728;28;20201;-86
2021/07/14 09:24:44;;;;;;;5.33;4.83;;;;;;;;;;4984493;28;20201;-86
2021/07/14 09:27:54;;;;;;;5.50;5.00;;;;;;;;;;4981535;28;20217;-86
2021/07/14 09:31:10;;;;;;;5.30;4.70;;;;;;;;;;5006108;28;20185;-86
2021/07/14 09:34:32;;;;;;;7.33;4.80;;;;;;;;;;4982482;28;20186;-86
2021/07/14 09:37:39;;;;;;;4.63;4.20;;;;;;;;;;4981207;28;20225;-86
2021/07/14 09:40:45;;;;;;;7.03;4.07;;;;;;;;;;5004482;28;20186;-86
2021/07/14 09:44:25;;;;;;;11.87;4.40;;;;;;;;;;4972503;28;20209;-91
2021/07/14 09:47:29;;;;;;;4.43;3.83;;;;;;;;;;4971125;28;20226;-91
2021/07/14 09:50:36;;;;;;;5.70;3.80;;;;;;;;;;4960003;28;20197;-89
2021/07/14 09:53:51;;;;;;;4.57;3.60;;;;;;;;;;4960400;28;20179;-87
2021/07/14 09:56:55;;;;;;;4.83;3.80;;;;;;;;;;4981956;28;20230;-86
2021/07/14 10:00:17;;;;;;;3.70;3.40;;;;;;;;;;4981992;28;20186;-87
2021/07/14 10:03:46;;;;;;;8.77;4.60;;;;;;;;;;4982763;28;20182;-86
2021/07/14 10:07:05;;;;;;;4.40;3.17;;;;;;;;;;4981862;28;20693;-86
2021/07/14 10:10:11;;;;;;;5.50;3.83;;;;;;;;;;4971104;28;20190;-85
2021/07/14 10:13:18;;;;;;;3.57;2.90;;;;;;;;;;4982182;28;20515;-87
2021/07/14 10:16:23;;;;;;;6.03;2.53;;;;;;;;;;4995318;28;20225;-87
2021/07/14 10:19:28;;;;;;;2.57;2.27;;;;;;;;;;4990311;28;20197;-87
2021/07/14 10:22:32;;;;;;;4.47;2.40;;;;;;;;;;4990626;28;20201;-86
2021/07/14 10:25:38;;;;;;;3.87;2.20;;;;;;;;;;5012898;28;20178;-86
2021/07/14 10:28:44;;;;;;;3.50;2.27;;;;;;;;;;4983230;28;20206;-86
2021/07/14 10:31:50;;;;;;;5.07;1.90;;;;;;;;;;4981838;28;20183;-86
2021/07/14 10:34:54;;;;;;;3.07;1.90;;;;;;;;;;4973724;28;20190;-86
2021/07/14 10:38:01;;;;;;;3.53;1.93;;;;;;;;;;4990923;28;20217;-87
2021/07/14 10:41:07;;;;;;;3.00;2.20;;;;;;;;;;4985424;28;20178;-87
2021/07/14 10:44:14;;;;;;;1.70;1.60;;;;;;;;;;4974019;28;20637;-86
2021/07/14 10:47:18;;;;;;;1.77;1.67;;;;;;;;;;4974092;28;20561;-86
2021/07/14 10:50:24;;;;;;;6.47;4.93;;;;;;;;;;4972851;28;20194;-86
2021/07/14 10:53:31;;;;;;;9.90;6.97;;;;;;;;;;4985407;28;20202;-86
2021/07/14 10:56:43;;;;;;;3.30;2.70;;;;;;;;;;4984873;28;20229;-86
2021/07/14 10:59:49;;;;;;;4.03;3.00;;;;;;;;;;4966191;28;20194;-85
2021/07/14 11:02:53;;;;;;;3.93;3.00;;;;;;;;;;4992477;28;20197;-86
2021/07/14 11:05:58;;;;;;;4.77;2.60;;;;;;;;;;4984441;28;20186;-86
2021/07/14 11:09:02;;;;;;;2.20;1.93;;;;;;;;;;4973396;28;20187;-86
2021/07/14 11:12:08;;;;;;;1.80;1.70;;;;;;;;;;4991847;28;20193;-85
2021/07/14 11:15:27;;;;;;;1.57;1.43;;;;;;;;;;4973558;28;20198;-87
2021/07/14 11:18:38;;;;;;;2.67;1.50;;;;;;;;;;4973633;28;20210;-86
2021/07/14 11:21:54;;;;;;;1.63;1.40;;;;;;;;;;4973185;28;20182;-87
2021/07/14 11:24:59;;;;;;;2.00;1.70;;;;;;;;;;5003870;28;20677;-86
2021/07/14 11:28:08;;;;;;;3.27;2.00;;;;;;;;;;5003660;28;20221;-87
2021/07/14 11:31:12;;;;;;;1.97;1.37;;;;;;;;;;4993089;28;20189;-86
2021/07/14 11:34:29;;;;;;;1.70;1.57;;;;;;;;;;5004029;28;20185;-86
2021/07/14 11:37:42;;;;;;;1.67;1.47;;;;;;;;;;4992786;28;20225;-86
2021/07/14 11:40:49;;;;;;;1.80;1.40;;;;;;;;;;4993024;28;20182;-87
2021/07/14 11:43:55;;;;;;;3.37;1.50;;;;;;;;;;5004316;28;20182;-87
2021/07/14 11:47:30;;;;;;;4.03;1.50;;;;;;;;;;4972902;28;20225;-87
2021/07/14 11:50:49;;;;;;;3.13;2.13;;;;;;;;;;4961349;28;20210;-86
2021/07/14 11:53:54;;;;;;;2.80;1.90;;;;;;;;;;4973890;28;20194;-87
2021/07/14 11:56:58;;;;;;;2.03;1.33;;;;;;;;;;4996082;28;20688;-86
2021/07/14 12:00:09;;;;;;;2.97;1.80;;;;;;;;;;4985967;28;20174;-87
2021/07/14 12:03:21;;;;;;;2.60;1.73;;;;;;;;;;5003334;28;20190;-86
2021/07/14 12:06:37;;;;;;;2.53;1.80;;;;;;;;;;4973760;28;20218;-86
2021/07/14 12:09:43;;;;;;;1.70;1.60;;;;;;;;;;5010297;28;20193;-86
2021/07/14 12:12:48;;;;;;;2.40;1.77;;;;;;;;;;5015274;28;20201;-86
2021/07/14 12:15:52;;;;;;;1.70;1.60;;;;;;;;;;5025454;28;20186;-86
2021/07/14 12:18:57;;;;;;;1.70;1.60;;;;;;;;;;5016431;23;20239;-84
2021/07/14 12:22:10;;;;;;;4.93;1.70;;;;;;;;;;4964464;28;20201;-85
2021/07/14 12:25:16;;;;;;;3.03;1.60;;;;;;;;;;4972230;28;20198;-84
2021/07/14 12:28:20;;;;;;;2.23;1.80;;;;;;;;;;4976056;23;20233;-77
2021/07/14 12:31:25;;;;;;;2.63;1.63;;;;;;;;;;4998035;28;20221;-77
2021/07/14 12:34:32;;;;;;;2.13;1.90;;;;;;;;;;4996697;28;20186;-77
2021/07/14 12:37:48;;;;;;;2.37;1.90;;;;;;;;;;4981291;28;20573;-76
2021/07/14 12:40:52;;;;;;;2.10;1.80;;;;;;;;;;4990829;28;20230;-77
2021/07/14 12:44:09;;;;;;;2.90;1.70;;;;;;;;;;4975220;28;20637;-76
2021/07/14 12:47:21;;;;;;;1.90;1.70;;;;;;;;;;4966177;28;20194;-77
2021/07/14 12:50:27;;;;;;;4.80;2.03;;;;;;;;;;4974851;28;20187;-76
2021/07/14 12:53:32;;;;;;;2.83;1.73;;;;;;;;;;5019206;28;20201;-77
2021/07/14 12:56:36;;;;;;;3.27;2.07;;;;;;;;;;4991345;28;20556;-77
2021/07/14 12:59:48;;;;;;;4.20;1.80;;;;;;;;;;4978688;28;20183;-76
2021/07/14 13:02:58;;;;;;;2.20;2.00;;;;;;;;;;4998385;28;20194;-76
2021/07/14 13:06:05;;;;;;;2.67;1.53;;;;;;;;;;4991289;28;20182;-76
2021/07/14 13:09:10;;;;;;;2.63;2.10;;;;;;;;;;4996395;28;20186;-76
2021/07/14 13:12:15;;;;;;;4.10;2.00;;;;;;;;;;4989433;28;20558;-76
2021/07/14 13:15:28;;;;;;;2.83;2.00;;;;;;;;;;4990172;28;20190;-77
2021/07/14 13:18:37;;;;;;;3.27;2.30;;;;;;;;;;5009498;28;20209;-76
2021/07/14 13:21:42;;;;;;;3.73;1.83;;;;;;;;;;5008124;28;20225;-76
2021/07/14 13:24:46;;;;;;;3.13;2.13;;;;;;;;;;5010761;28;20197;-76
2021/07/14 13:27:54;;;;;;;3.63;1.93;;;;;;;;;;4970801;28;20214;-76
2021/07/14 13:31:09;;;;;;;2.27;1.90;;;;;;;;;;4983674;28;20222;-76
2021/07/14 13:34:15;;;;;;;1.90;1.70;;;;;;;;;;4991471;28;20175;-76
2021/07/14 13:37:26;;;;;;;3.50;1.83;;;;;;;;;;5008808;28;20194;-76
2021/07/14 13:40:31;;;;;;;2.97;1.90;;;;;;;;;;4990956;28;20199;-76
2021/07/14 13:43:40;;;;;;;3.27;1.93;;;;;;;;;;5011776;28;20189;-76
2021/07/14 13:46:46;;;;;;;5.17;1.80;;;;;;;;;;4982907;28;20198;-76
2021/07/14 13:49:50;;;;;;;1.83;1.60;;;;;;;;;;4994066;28;20197;-76
2021/07/14 13:53:03;;;;;;;2.43;1.90;;;;;;;;;;4994326;28;20182;-76
2021/07/14 13:56:09;;;;;;;150.77;18.53;;;;;;;;;;5003230;28;20198;-76
2021/07/14 13:59:22;;;;;;;39.80;6.97;;;;;;;;;;4992952;28;20684;-76
2021/07/14 14:02:32;;;;;;;2.90;2.03;;;;;;;;;;4996651;28;20221;-76
2021/07/14 14:05:40;;;;;;;2.87;1.80;;;;;;;;;;5010780;28;20197;-76
2021/07/14 14:08:53;;;;;;;4.60;2.03;;;;;;;;;;5013464;28;20198;-76
2021/07/14 14:11:59;;;;;;;1.90;1.70;;;;;;;;;;5004541;28;20230;-76
2021/07/14 14:15:14;;;;;;;2.53;1.97;;;;;;;;;;5008954;28;20189;-76
2021/07/14 14:18:18;;;;;;;4.20;2.50;;;;;;;;;;5005306;28;20660;-76
2021/07/14 14:21:25;;;;;;;2.80;1.90;;;;;;;;;;5010981;28;20218;-77
2021/07/14 14:24:31;;;;;;;3.57;1.97;;;;;;;;;;4981688;28;20193;-77
2021/07/14 14:31:00;;;;;;;3.50;2.07;;;;;;;;;;5011040;28;20226;-77
2021/07/14 14:34:04;;;;;;;2.83;2.10;;;;;;;;;;4986371;28;20186;-76
2021/07/14 14:37:09;;;;;;;5.50;1.83;;;;;;;;;;4974743;28;20521;-77
2021/07/14 14:40:14;;;;;;;4.67;2.20;;;;;;;;;;5006310;28;20185;-77
2021/07/14 14:43:19;;;;;;;3.47;2.00;;;;;;;;;;5014592;28;20197;-77
2021/07/14 14:46:23;;;;;;;1.80;1.70;;;;;;;;;;4997321;28;20198;-77
2021/07/14 14:49:27;;;;;;;3.10;1.70;;;;;;;;;;4999515;28;20178;-77
2021/07/14 14:52:31;;;;;;;2.83;2.20;;;;;;;;;;5013458;28;20715;-76
2021/07/14 14:55:36;;;;;;;2.40;1.63;;;;;;;;;;5000082;28;20190;-76
2021/07/14 14:58:40;;;;;;;3.10;1.57;;;;;;;;;;4990168;28;20205;-77
2021/07/14 15:01:44;;;;;;;2.53;1.80;;;;;;;;;;5004269;28;20221;-77
2021/07/14 15:04:48;;;;;;;4.73;1.70;;;;;;;;;;5003981;28;20199;-77
2021/07/14 15:07:53;;;;;;;2.00;1.70;;;;;;;;;;5000014;28;20203;-77
2021/07/14 15:10:57;;;;;;;6.33;1.70;;;;;;;;;;5011348;28;20228;-77
2021/07/14 15:14:00;;;;;;;6.00;1.83;;;;;;;;;;5015135;28;20186;-77
2021/07/14 15:17:05;;;;;;;2.63;1.70;;;;;;;;;;5003687;28;20197;-77
2021/07/14 15:20:10;;;;;;;5.60;1.90;;;;;;;;;;4998449;28;20573;-76
2021/07/14 15:23:15;;;;;;;2.47;1.80;;;;;;;;;;4996682;28;20190;-77
2021/07/14 15:29:43;;;;;;;1.80;1.70;;;;;;;;;;5007824;28;20193;-76
2021/07/14 15:32:46;;;;;;;3.70;1.87;;;;;;;;;;4996004;28;20214;-76
2021/07/14 15:35:50;;;;;;;2.33;1.63;;;;;;;;;;5000611;28;20191;-76
2021/07/14 15:38:55;;;;;;;2.60;1.80;;;;;;;;;;5003428;28;20208;-76
2021/07/14 15:41:59;;;;;;;3.07;2.00;;;;;;;;;;4997564;28;20220;-76
2021/07/14 15:45:04;;;;;;;4.37;1.70;;;;;;;;;;4995709;28;20666;-76
2021/07/14 15:48:08;;;;;;;4.60;1.63;;;;;;;;;;4994890;28;20198;-76
2021/07/14 15:51:12;;;;;;;4.37;1.90;;;;;;;;;;4995406;28;20220;-76
2021/07/14 15:54:16;;;;;;;6.47;1.77;;;;;;;;;;4975538;28;20210;-76
2021/07/14 15:57:20;;;;;;;2.50;1.97;;;;;;;;;;4964190;28;20549;-76
2021/07/14 16:00:25;;;;;;;3.03;1.70;;;;;;;;;;4994929;28;20536;-76
2021/07/14 16:03:28;;;;;;;2.70;1.83;;;;;;;;;;5009933;28;20201;-77
2021/07/14 16:06:33;;;;;;;3.17;1.70;;;;;;;;;;5000574;28;20206;-76
2021/07/14 16:09:37;;;;;;;3.77;1.70;;;;;;;;;;4994763;28;20528;-75
2021/07/14 16:12:42;;;;;;;4.83;1.73;;;;;;;;;;4998082;28;20226;-76
2021/07/14 16:15:47;;;;;;;3.73;1.63;;;;;;;;;;5000228;28;20199;-76
2021/07/14 16:18:51;;;;;;;7.53;1.80;;;;;;;;;;4987681;28;20208;-76
2021/07/14 16:21:55;;;;;;;10.47;2.03;;;;;;;;;;4986826;28;20221;-76
2021/07/14 16:25:00;;;;;;;5.23;1.77;;;;;;;;;;4985719;28;20207;-76
2021/07/14 16:28:05;;;;;;;2.70;1.70;;;;;;;;;;4986509;28;20215;-76
2021/07/14 16:31:10;;;;;;;5.27;1.77;;;;;;;;;;4991469;28;20219;-76
2021/07/14 16:34:15;;;;;;;5.00;1.47;;;;;;;;;;4995836;28;20189;-75
2021/07/14 16:37:19;;;;;;;2.30;1.80;;;;;;;;;;4993137;28;20705;-76
2021/07/14 16:40:24;;;;;;;3.73;1.60;;;;;;;;;;5005744;28;20222;-76
2021/07/14 16:43:27;;;;;;;2.27;1.60;;;;;;;;;;4991644;28;20190;-76
2021/07/14 16:46:32;;;;;;;6.10;1.67;;;;;;;;;;5009986;28;20189;-76
2021/07/14 16:49:36;;;;;;;4.47;1.80;;;;;;;;;;4983503;28;20925;-76
2021/07/14 16:52:40;;;;;;;2.47;1.60;;;;;;;;;;4991279;28;20217;-76
2021/07/14 16:55:45;;;;;;;5.60;1.83;;;;;;;;;;5001515;28;20216;-75
2021/07/14 16:58:49;;;;;;;1.37;1.20;;;;;;;;;;4998286;28;20218;-76
2021/07/14 17:01:53;;;;;;;1.90;1.40;;;;;;;;;;4999303;28;20229;-75
2021/07/14 17:04:58;;;;;;;5.00;1.43;;;;;;;;;;4980719;28;20190;-75
2021/07/14 17:08:02;;;;;;;2.17;1.40;;;;;;;;;;4970284;28;20187;-75
2021/07/14 17:11:06;;;;;;;4.37;1.60;;;;;;;;;;4970236;28;20258;-76
2021/07/14 17:14:10;;;;;;;2.03;1.30;;;;;;;;;;4971356;28;20495;-75
2021/07/14 17:17:14;;;;;;;2.70;1.30;;;;;;;;;;4997238;28;20194;-76
2021/07/14 17:20:18;;;;;;;2.17;1.23;;;;;;;;;;4990262;28;20217;-75
2021/07/14 17:23:23;;;;;;;3.77;1.63;;;;;;;;;;4990722;28;20181;-76
2021/07/14 17:26:27;;;;;;;3.00;1.47;;;;;;;;;;4994668;28;20194;-75
2021/07/14 17:29:31;;;;;;;3.60;1.30;;;;;;;;;;4989571;28;20202;-76
2021/07/14 17:32:36;;;;;;;1.83;1.30;;;;;;;;;;4970160;28;20218;-76
2021/07/14 17:35:40;;;;;;;2.83;1.50;;;;;;;;;;4970993;28;20206;-76
2021/07/14 17:38:45;;;;;;;3.93;1.40;;;;;;;;;;4970237;28;20202;-76
2021/07/14 17:41:49;;;;;;;3.23;1.53;;;;;;;;;;4999595;28;20234;-76
2021/07/14 17:44:53;;;;;;;3.20;1.50;;;;;;;;;;4990534;28;20182;-76
2021/07/14 17:47:58;;;;;;;1.30;1.20;;;;;;;;;;4970922;28;20179;-76
2021/07/14 17:51:02;;;;;;;1.80;1.60;;;;;;;;;;4975022;28;20206;-76
2021/07/14 17:54:06;;;;;;;2.93;1.40;;;;;;;;;;4984011;28;20522;-76
2021/07/14 17:57:12;;;;;;;4.77;2.03;;;;;;;;;;4998134;28;20198;-75
2021/07/14 18:00:17;;;;;;;6.10;1.50;;;;;;;;;;4996049;28;20210;-76
2021/07/14 18:03:21;;;;;;;2.47;1.90;;;;;;;;;;4994000;28;20206;-75
2021/07/14 18:06:25;;;;;;;4.03;1.80;;;;;;;;;;4986630;28;20216;-75
2021/07/14 18:09:29;;;;;;;1.60;1.50;;;;;;;;;;4994497;28;20202;-75
2021/07/14 18:12:34;;;;;;;2.17;1.70;;;;;;;;;;4998051;28;20692;-75
2021/07/14 18:15:38;;;;;;;2.40;1.43;;;;;;;;;;4994097;28;20179;-75
2021/07/14 18:18:42;;;;;;;3.80;1.83;;;;;;;;;;4974552;28;20186;-75
2021/07/14 18:21:46;;;;;;;1.67;1.57;;;;;;;;;;4974190;28;20222;-76
2021/07/14 18:24:50;;;;;;;3.60;1.57;;;;;;;;;;4986976;28;20657;-76
2021/07/14 18:27:54;;;;;;;4.47;2.07;;;;;;;;;;4999226;28;20212;-75
2021/07/14 18:30:58;;;;;;;2.43;1.80;;;;;;;;;;5012429;28;20220;-75
2021/07/14 18:34:03;;;;;;;3.20;1.70;;;;;;;;;;4994522;28;20705;-75
2021/07/14 18:37:07;;;;;;;3.83;1.70;;;;;;;;;;4989201;28;20194;-75
2021/07/14 18:40:12;;;;;;;3.00;1.90;;;;;;;;;;5010468;28;20213;-75
2021/07/14 18:43:16;;;;;;;2.20;1.90;;;;;;;;;;5004239;28;20197;-75
2021/07/14 18:46:21;;;;;;;2.10;1.60;;;;;;;;;;5011920;28;20193;-75
2021/07/14 18:49:27;;;;;;;4.10;2.20;;;;;;;;;;4994960;28;20202;-75